createdAt,value
2023-05-20T00:01:33.602Z,1.57
2023-05-20T00:04:02.089Z,1.67
2023-05-20T00:06:30.589Z,2.03
2023-05-20T00:09:00.147Z,1.30
2023-05-20T00:11:28.404Z,1.90
2023-05-20T00:13:57.908Z,3.13
2023-05-20T00:16:26.110Z,1.93
2023-05-20T00:18:54.270Z,3.00
2023-05-20T00:21:22.438Z,2.40
2023-05-20T00:23:50.767Z,1.87
2023-05-20T00:26:18.912Z,2.60
2023-05-20T00:28:53.522Z,3.83
2023-05-20T00:31:23.329Z,2.47
2023-05-20T00:33:51.453Z,12.30
2023-05-20T00:36:19.604Z,3.43
2023-05-20T00:38:47.746Z,3.50
2023-05-20T00:41:15.871Z,3.17
2023-05-20T00:43:43.975Z,1.97
2023-05-20T00:46:13.565Z,2.17
2023-05-20T00:48:44.893Z,2.80
2023-05-20T00:51:14.202Z,2.90
2023-05-20T00:53:43.216Z,2.60
2023-05-20T00:56:11.730Z,2.60
2023-05-20T00:58:41.008Z,2.87
2023-05-20T01:01:09.243Z,1.93
2023-05-20T01:03:37.787Z,6.20
2023-05-20T01:06:07.491Z,2.23
2023-05-20T01:08:35.835Z,3.33
2023-05-20T01:11:07.537Z,3.03
2023-05-20T01:13:41.064Z,5.20
2023-05-20T01:16:11.555Z,6.10
2023-05-20T01:18:42.076Z,3.93
2023-05-20T01:21:13.188Z,1.87
2023-05-20T01:23:43.036Z,2.40
2023-05-20T01:26:13.735Z,2.10
2023-05-20T01:28:44.579Z,3.83
2023-05-20T01:31:19.604Z,2.50
2023-05-20T01:33:51.655Z,3.40
2023-05-20T01:36:22.200Z,5.10
2023-05-20T01:38:53.190Z,2.30
2023-05-20T01:41:22.342Z,2.47
2023-05-20T01:43:51.079Z,1.77
2023-05-20T01:46:19.419Z,2.00
2023-05-20T01:48:50.346Z,1.90
2023-05-20T01:51:18.794Z,2.97
2023-05-20T01:53:46.948Z,3.50
2023-05-20T01:56:16.609Z,2.40
2023-05-20T01:58:44.862Z,3.83
2023-05-20T02:01:13.141Z,2.03
2023-05-20T02:03:42.593Z,1.63
2023-05-20T02:06:10.811Z,3.23
2023-05-20T02:08:39.318Z,3.60
2023-05-20T02:11:07.633Z,2.13
2023-05-20T02:13:37.140Z,2.00
2023-05-20T02:16:06.003Z,2.40
2023-05-20T02:18:35.310Z,3.07
2023-05-20T02:21:04.388Z,2.90
2023-05-20T02:23:32.728Z,3.00
2023-05-20T02:26:01.139Z,6.93
2023-05-20T02:28:29.668Z,3.30
2023-05-20T02:30:59.184Z,2.40
2023-05-20T02:33:29.051Z,3.10
2023-05-20T02:35:57.752Z,7.70
2023-05-20T02:38:26.561Z,3.20
2023-05-20T02:40:54.707Z,3.10
2023-05-20T02:43:22.997Z,4.27
2023-05-20T02:45:51.152Z,2.47
2023-05-20T02:48:20.958Z,2.03
2023-05-20T02:50:49.494Z,5.80
2023-05-20T02:53:17.667Z,1.60
2023-05-20T02:55:48.337Z,2.23
2023-05-20T02:58:17.288Z,2.00
2023-05-20T03:00:45.708Z,2.23
2023-05-20T03:03:14.931Z,3.00
2023-05-20T03:05:46.164Z,5.73
2023-05-20T03:08:14.976Z,2.80
2023-05-20T03:10:43.192Z,4.80
2023-05-20T03:13:11.790Z,3.30
2023-05-20T03:15:40.141Z,4.00
2023-05-20T03:18:09.981Z,4.33
2023-05-20T03:20:38.527Z,2.40
2023-05-20T03:23:09.705Z,3.20
2023-05-20T03:25:38.754Z,6.87
2023-05-20T03:28:07.233Z,3.50
2023-05-20T03:30:38.202Z,4.00
2023-05-20T03:33:07.582Z,3.63
2023-05-20T03:35:36.055Z,4.30
2023-05-20T03:38:04.506Z,2.93
2023-05-20T03:40:35.558Z,4.03
2023-05-20T03:43:04.023Z,2.33
2023-05-20T03:45:33.960Z,2.23
2023-05-20T03:48:07.097Z,2.87
2023-05-20T03:50:36.754Z,3.37
2023-05-20T03:53:04.922Z,2.60
2023-05-20T03:55:40.815Z,3.33
2023-05-20T03:58:09.650Z,4.13
2023-05-20T04:00:37.810Z,3.33
2023-05-20T04:03:06.571Z,3.60
2023-05-20T04:05:37.356Z,3.60
2023-05-20T04:08:13.605Z,6.53
2023-05-20T04:10:43.774Z,5.63
2023-05-20T04:13:13.311Z,4.30
2023-05-20T04:15:42.476Z,3.50
2023-05-20T04:18:11.895Z,3.40
2023-05-20T04:20:41.368Z,5.50
2023-05-20T04:23:10.143Z,7.90
2023-05-20T04:25:38.812Z,3.00
2023-05-20T04:28:09.244Z,6.20
2023-05-20T04:30:37.437Z,3.20
2023-05-20T04:33:06.265Z,3.00
2023-05-20T04:35:35.152Z,5.07
2023-05-20T04:38:06.363Z,4.30
2023-05-20T04:40:34.635Z,3.70
2023-05-20T04:43:03.995Z,7.77
2023-05-20T04:45:35.778Z,6.20
2023-05-20T04:48:04.209Z,3.20
2023-05-20T04:50:32.583Z,3.60
2023-05-20T04:53:00.793Z,8.20
2023-05-20T04:55:29.908Z,3.97
2023-05-20T04:57:58.100Z,4.30
2023-05-20T05:00:26.317Z,3.60
2023-05-20T05:02:56.659Z,5.83
2023-05-20T05:05:24.834Z,2.40
2023-05-20T05:07:55.384Z,3.40
2023-05-20T05:10:25.188Z,4.87
2023-05-20T05:12:53.343Z,3.77
2023-05-20T05:15:21.582Z,4.50
2023-05-20T05:17:49.893Z,3.43
2023-05-20T05:20:19.650Z,5.10
2023-05-20T05:22:47.886Z,3.73
2023-05-20T05:25:16.005Z,6.40
2023-05-20T05:27:45.255Z,5.37
2023-05-20T05:30:13.674Z,5.07
2023-05-20T05:32:41.995Z,3.50
2023-05-20T05:35:11.051Z,3.70
2023-05-20T05:37:40.735Z,2.90
2023-05-20T05:40:10.262Z,4.60
2023-05-20T05:42:38.441Z,7.20
2023-05-20T05:45:07.676Z,4.53
2023-05-20T05:47:36.458Z,6.33
2023-05-20T05:50:04.961Z,4.43
2023-05-20T05:52:35.004Z,3.87
2023-05-20T05:55:06.528Z,6.20
2023-05-20T05:57:34.796Z,8.10
2023-05-20T06:00:04.612Z,7.10
2023-05-20T06:02:46.398Z,4.70
2023-05-20T06:05:23.530Z,4.47
2023-05-20T06:07:54.829Z,4.87
2023-05-20T06:10:24.634Z,6.37
2023-05-20T06:12:52.811Z,6.37
2023-05-20T06:15:21.231Z,3.27
2023-05-20T06:17:49.673Z,9.43
2023-05-20T06:20:18.451Z,7.67
2023-05-20T06:22:46.606Z,6.67
2023-05-20T06:25:15.691Z,5.90
2023-05-20T06:27:45.303Z,4.30
2023-05-20T06:30:16.574Z,3.60
2023-05-20T06:32:44.874Z,3.53
2023-05-20T06:35:13.172Z,5.73
2023-05-20T06:37:41.428Z,4.37
2023-05-20T06:40:11.510Z,8.33
2023-05-20T06:42:39.632Z,5.17
2023-05-20T06:45:10.422Z,3.20
2023-05-20T06:47:55.005Z,4.77
2023-05-20T06:50:23.305Z,5.93
2023-05-20T06:52:51.523Z,5.33
2023-05-20T06:55:19.907Z,4.40
2023-05-20T06:57:48.621Z,11.40
2023-05-20T07:00:20.618Z,7.50
2023-05-20T07:02:48.750Z,8.00
2023-05-20T07:05:17.010Z,6.47
2023-05-20T07:07:45.092Z,5.63
2023-05-20T07:10:13.208Z,4.17
2023-05-20T07:12:41.311Z,6.30
2023-05-20T07:15:10.404Z,6.23
2023-05-20T07:17:40.338Z,9.67
2023-05-20T07:20:09.508Z,4.47
2023-05-20T07:22:37.823Z,7.13
2023-05-20T07:25:24.519Z,5.83
2023-05-20T07:27:52.912Z,6.23
2023-05-20T07:30:21.069Z,7.00
2023-05-20T07:33:02.310Z,6.27
2023-05-20T07:35:30.869Z,8.30
2023-05-20T07:37:59.037Z,7.90
2023-05-20T07:40:27.231Z,9.83
2023-05-20T07:42:55.377Z,9.87
2023-05-20T07:45:23.511Z,5.53
2023-05-20T07:47:51.698Z,7.10
2023-05-20T07:50:21.780Z,8.90
2023-05-20T07:52:56.620Z,6.40
2023-05-20T07:55:27.757Z,8.13
2023-05-20T07:57:57.258Z,8.30
2023-05-20T08:00:26.541Z,7.40
2023-05-20T08:02:54.889Z,7.43
2023-05-20T08:05:32.605Z,8.53
2023-05-20T08:08:01.339Z,7.40
2023-05-20T08:10:32.918Z,7.80
2023-05-20T08:13:01.107Z,9.37
2023-05-20T08:15:29.453Z,6.67
2023-05-20T08:17:58.330Z,16.67
2023-05-20T08:20:27.743Z,7.00
2023-05-20T08:22:57.333Z,7.80
2023-05-20T08:25:25.584Z,7.63
2023-05-20T08:27:53.944Z,5.03
2023-05-20T08:30:22.427Z,7.00
2023-05-20T08:32:50.672Z,6.93
2023-05-20T08:35:19.143Z,8.57
2023-05-20T08:37:47.261Z,7.77
2023-05-20T08:40:17.484Z,5.83
2023-05-20T08:42:45.765Z,7.13
2023-05-20T08:45:26.463Z,10.60
2023-05-20T08:47:54.876Z,8.13
2023-05-20T08:50:23.229Z,7.23
2023-05-20T08:52:51.744Z,5.30
2023-05-20T08:55:27.032Z,7.23
2023-05-20T08:57:55.853Z,9.93
2023-05-20T09:00:27.345Z,12.40
2023-05-20T09:02:57.056Z,10.00
2023-05-20T09:05:27.216Z,6.73
2023-05-20T09:08:06.443Z,8.57
2023-05-20T09:10:36.710Z,8.20
2023-05-20T09:13:05.679Z,18.53
2023-05-20T09:15:34.640Z,6.97
2023-05-20T09:18:03.962Z,8.20
2023-05-20T09:20:33.594Z,6.87
2023-05-20T09:23:03.002Z,9.53
2023-05-20T09:25:31.632Z,9.63
2023-05-20T09:28:01.306Z,6.63
2023-05-20T09:30:29.629Z,7.80
2023-05-20T09:32:59.131Z,7.07
2023-05-20T09:35:29.100Z,8.67
2023-05-20T09:37:58.723Z,7.40
2023-05-20T09:40:28.596Z,7.07
2023-05-20T09:43:02.479Z,7.50
2023-05-20T09:45:32.286Z,11.47
2023-05-20T09:48:02.365Z,7.80
2023-05-20T09:50:31.547Z,6.80
2023-05-20T09:53:03.924Z,7.93
2023-05-20T09:55:33.050Z,12.40
2023-05-20T09:58:04.075Z,6.40
2023-05-20T10:00:34.547Z,12.10
2023-05-20T10:03:03.181Z,8.07
2023-05-20T10:05:34.330Z,9.80
2023-05-20T10:08:49.717Z,9.27
2023-05-20T10:11:38.822Z,10.17
2023-05-20T10:14:35.202Z,8.67
2023-05-20T10:17:12.463Z,10.00
2023-05-20T10:19:40.619Z,8.60
2023-05-20T10:22:10.915Z,6.73
2023-05-20T10:24:41.016Z,7.10
2023-05-20T10:27:11.226Z,8.40
2023-05-20T10:32:28.754Z,8.03
2023-05-20T10:35:01.018Z,8.47
2023-05-20T10:37:31.658Z,5.80
2023-05-20T10:40:08.733Z,8.20
2023-05-20T10:42:36.917Z,8.33
2023-05-20T10:45:06.102Z,8.50
2023-05-20T10:47:36.756Z,7.87
2023-05-20T10:50:06.187Z,9.07
2023-05-20T10:52:35.122Z,10.00
2023-05-20T10:55:05.409Z,12.67
2023-05-20T10:57:35.229Z,6.37
2023-05-20T11:00:05.736Z,6.83
2023-05-20T11:02:36.151Z,6.57
2023-05-20T11:05:06.527Z,9.33
2023-05-20T11:07:34.701Z,9.47
2023-05-20T11:10:03.794Z,13.67
2023-05-20T11:12:33.741Z,8.07
2023-05-20T11:15:02.903Z,11.47
2023-05-20T11:17:31.531Z,7.13
2023-05-20T11:20:01.446Z,8.37
2023-05-20T11:22:31.921Z,7.20
2023-05-20T11:25:00.099Z,7.80
2023-05-20T11:27:29.463Z,8.63
2023-05-20T11:29:57.688Z,6.70
2023-05-20T11:32:27.006Z,7.17
2023-05-20T11:34:55.246Z,12.47
2023-05-20T11:37:25.171Z,11.10
2023-05-20T11:40:07.852Z,13.27
2023-05-20T11:42:36.618Z,15.20
2023-05-20T11:45:05.254Z,18.50
2023-05-20T11:47:33.425Z,49.63
2023-05-20T11:50:01.649Z,37.00
2023-05-20T11:52:34.348Z,43.97
2023-05-20T11:55:02.657Z,35.17
2023-05-20T11:57:32.538Z,27.67
2023-05-20T12:00:00.793Z,16.10
2023-05-20T12:02:29.044Z,9.27
2023-05-20T12:04:58.188Z,9.13
2023-05-20T12:07:26.827Z,11.17
2023-05-20T12:09:56.332Z,8.90
2023-05-20T12:12:25.488Z,9.23
2023-05-20T12:14:53.597Z,9.00
2023-05-20T12:17:21.774Z,12.53
2023-05-20T12:19:49.912Z,7.73
2023-05-20T12:22:18.099Z,7.53
2023-05-20T12:24:46.305Z,8.17
2023-05-20T12:27:15.828Z,10.07
2023-05-20T12:29:43.987Z,8.53
2023-05-20T12:32:12.383Z,9.50
2023-05-20T12:34:40.575Z,10.60
2023-05-20T12:37:08.790Z,10.63
2023-05-20T12:39:37.231Z,8.80
2023-05-20T12:42:05.522Z,12.83
2023-05-20T12:44:34.990Z,7.50
2023-05-20T12:47:03.629Z,9.83
2023-05-20T12:49:31.920Z,7.90
2023-05-20T12:52:03.568Z,8.47
2023-05-20T12:54:34.118Z,8.67
2023-05-20T12:57:03.121Z,7.27
2023-05-20T12:59:31.311Z,8.63
2023-05-20T13:02:01.249Z,12.03
2023-05-20T13:04:29.714Z,8.47
2023-05-20T13:06:58.506Z,9.57
2023-05-20T13:09:26.786Z,9.70
2023-05-20T13:11:55.491Z,7.20
2023-05-20T13:14:23.746Z,7.93
2023-05-20T13:16:54.923Z,9.23
2023-05-20T13:19:25.160Z,8.00
2023-05-20T13:21:54.386Z,8.57
2023-05-20T13:24:22.708Z,7.60
2023-05-20T13:26:50.898Z,9.43
2023-05-20T13:29:19.013Z,6.97
2023-05-20T13:31:48.455Z,7.30
2023-05-20T13:34:16.668Z,7.87
2023-05-20T13:36:47.821Z,10.40
2023-05-20T13:39:16.576Z,10.27
2023-05-20T13:41:45.003Z,10.77
2023-05-20T13:44:13.164Z,11.23
2023-05-20T13:46:41.413Z,9.83
2023-05-20T13:49:09.655Z,8.90
2023-05-20T13:51:37.847Z,7.33
2023-05-20T13:54:07.436Z,9.23
2023-05-20T13:56:35.762Z,9.23
2023-05-20T13:59:03.940Z,10.37
2023-05-20T14:01:33.291Z,8.93
2023-05-20T14:04:01.688Z,9.70
2023-05-20T14:06:31.986Z,8.20
2023-05-20T14:09:00.184Z,6.53
2023-05-20T14:11:29.747Z,8.30
2023-05-20T14:13:57.875Z,7.03
2023-05-20T14:16:26.276Z,8.30
2023-05-20T14:18:54.501Z,12.27
2023-05-20T14:21:22.750Z,9.03
2023-05-20T14:23:50.904Z,11.50
2023-05-20T14:26:19.057Z,7.10
2023-05-20T14:28:48.549Z,8.43
2023-05-20T14:31:16.869Z,7.50
2023-05-20T14:33:45.077Z,7.10
2023-05-20T14:36:13.352Z,9.57
2023-05-20T14:38:41.493Z,11.40
2023-05-20T14:41:09.684Z,8.13
2023-05-20T14:43:37.828Z,9.23
2023-05-20T14:46:07.641Z,11.60
2023-05-20T14:48:35.841Z,8.33
2023-05-20T14:51:04.025Z,9.00
2023-05-20T14:53:32.327Z,8.17
2023-05-20T14:56:00.553Z,9.87
2023-05-20T14:58:28.659Z,7.47
2023-05-20T15:00:57.037Z,8.90
2023-05-20T15:03:28.033Z,8.80
2023-05-20T15:05:56.349Z,7.40
2023-05-20T15:08:24.721Z,9.00
2023-05-20T15:10:53.052Z,9.93
2023-05-20T15:13:21.282Z,9.97
2023-05-20T15:15:49.378Z,8.63
2023-05-20T15:18:17.794Z,8.43
2023-05-20T15:20:47.267Z,12.93
2023-05-20T15:23:17.110Z,8.40
2023-05-20T15:25:45.281Z,8.73
2023-05-20T15:28:13.420Z,8.60
2023-05-20T15:30:41.544Z,9.37
2023-05-20T15:33:09.852Z,8.30
2023-05-20T15:35:38.078Z,14.67
2023-05-20T15:38:07.594Z,10.10
2023-05-20T15:40:35.967Z,9.87
2023-05-20T15:43:04.402Z,11.47
2023-05-20T15:45:32.755Z,11.07
2023-05-20T15:48:01.259Z,8.53
2023-05-20T15:50:30.031Z,9.63
2023-05-20T15:52:58.258Z,9.73
2023-05-20T15:55:27.887Z,9.57
2023-05-20T15:57:56.007Z,8.10
2023-05-20T16:00:24.432Z,9.13
2023-05-20T16:02:54.110Z,10.37
2023-05-20T16:05:24.620Z,7.77
2023-05-20T16:07:53.253Z,9.00
2023-05-20T16:10:23.456Z,8.67
2023-05-20T16:12:54.238Z,8.53
2023-05-20T16:15:22.453Z,11.23
2023-05-20T16:17:50.681Z,8.70
2023-05-20T16:20:18.899Z,7.63
2023-05-20T16:22:47.180Z,11.33
2023-05-20T16:25:15.355Z,10.30
2023-05-20T16:27:43.549Z,11.50
2023-05-20T16:30:13.869Z,9.60
2023-05-20T16:32:42.092Z,8.73
2023-05-20T16:35:10.686Z,8.80
2023-05-20T16:37:39.375Z,9.10
2023-05-20T16:40:09.524Z,10.60
2023-05-20T16:42:38.505Z,12.93
2023-05-20T16:45:07.962Z,9.60
2023-05-20T16:47:37.838Z,9.87
2023-05-20T16:50:06.677Z,11.43
2023-05-20T16:52:35.274Z,8.53
2023-05-20T16:55:03.730Z,12.27
2023-05-20T16:57:32.662Z,9.23
2023-05-20T17:00:00.871Z,10.20
2023-05-20T17:02:29.084Z,9.13
2023-05-20T17:04:58.565Z,12.90
2023-05-20T17:07:26.722Z,9.40
2023-05-20T17:09:54.910Z,9.40
2023-05-20T17:12:23.056Z,14.60
2023-05-20T17:14:51.244Z,12.27
2023-05-20T17:17:19.396Z,12.83
2023-05-20T17:19:47.566Z,11.27
2023-05-20T17:22:17.084Z,9.77
2023-05-20T17:24:45.216Z,13.60
2023-05-20T17:27:13.431Z,10.90
2023-05-20T17:29:41.544Z,11.40
2023-05-20T17:32:09.693Z,10.50
2023-05-20T17:34:37.851Z,12.33
2023-05-20T17:37:06.287Z,12.23
2023-05-20T17:39:35.792Z,16.47
2023-05-20T17:42:03.991Z,10.17
2023-05-20T17:44:32.132Z,8.90
2023-05-20T17:47:00.482Z,11.20
2023-05-20T17:49:29.751Z,14.73
2023-05-20T17:51:57.862Z,10.97
2023-05-20T17:54:26.010Z,14.50
2023-05-20T17:56:56.226Z,12.87
2023-05-20T17:59:25.489Z,12.40
2023-05-20T18:01:53.665Z,15.50
2023-05-20T18:04:22.667Z,18.30
2023-05-20T18:06:50.965Z,12.43
2023-05-20T18:09:19.669Z,13.50
2023-05-20T18:11:47.892Z,11.50
2023-05-20T18:14:18.881Z,12.77
2023-05-20T18:16:47.046Z,10.60
2023-05-20T18:19:15.652Z,16.03
2023-05-20T18:21:44.079Z,10.93
2023-05-20T18:24:13.741Z,14.23
2023-05-20T18:26:41.906Z,14.47
2023-05-20T18:29:10.136Z,11.50
2023-05-20T18:31:41.359Z,13.33
2023-05-20T18:34:11.008Z,14.50
2023-05-20T18:36:39.196Z,11.90
2023-05-20T18:39:07.519Z,16.00
2023-05-20T18:41:46.767Z,15.13
2023-05-20T18:44:15.938Z,16.37
2023-05-20T18:46:46.120Z,12.83
2023-05-20T18:49:14.407Z,12.70
2023-05-20T18:51:42.627Z,15.87
2023-05-20T18:54:10.789Z,19.23
2023-05-20T18:56:39.037Z,17.40
2023-05-20T18:59:07.175Z,13.00
2023-05-20T19:01:36.497Z,15.30
2023-05-20T19:04:06.470Z,19.37
2023-05-20T19:06:35.242Z,15.80
2023-05-20T19:09:03.750Z,15.83
2023-05-20T19:11:32.120Z,17.47
2023-05-20T19:14:00.724Z,17.20
2023-05-20T19:16:28.921Z,15.77
2023-05-20T19:18:57.158Z,15.90
2023-05-20T19:21:26.733Z,17.27
2023-05-20T19:23:54.871Z,17.87
2023-05-20T19:26:23.128Z,20.13
2023-05-20T19:28:51.553Z,19.57
2023-05-20T19:31:21.738Z,14.13
2023-05-20T19:33:50.682Z,18.63
2023-05-20T19:36:18.996Z,22.53
2023-05-20T19:38:48.649Z,16.33
2023-05-20T19:41:17.037Z,18.03
2023-05-20T19:43:45.529Z,14.40
2023-05-20T19:46:13.770Z,15.63
2023-05-20T19:48:41.931Z,14.57
2023-05-20T19:51:10.488Z,16.80
2023-05-20T19:53:38.999Z,14.10
2023-05-20T19:56:08.844Z,15.93
2023-05-20T19:58:36.994Z,14.47
2023-05-20T20:01:06.708Z,15.40
2023-05-20T20:03:35.037Z,16.10
2023-05-20T20:06:03.919Z,15.50
2023-05-20T20:08:32.510Z,16.43
2023-05-20T20:11:00.730Z,18.23
2023-05-20T20:13:30.535Z,15.00
2023-05-20T20:15:58.892Z,17.40
2023-05-20T20:18:27.387Z,15.90
2023-05-20T20:20:55.709Z,18.97
2023-05-20T20:23:23.847Z,14.87
2023-05-20T20:25:51.993Z,18.67
2023-05-20T20:28:20.216Z,14.33
2023-05-20T20:30:49.735Z,14.50
2023-05-20T20:33:17.895Z,13.37
2023-05-20T20:35:46.651Z,18.90
2023-05-20T20:38:14.957Z,18.83
2023-05-20T20:40:44.800Z,13.80
2023-05-20T20:43:20.503Z,15.83
2023-05-20T20:45:53.072Z,15.33
2023-05-20T20:48:26.579Z,16.83
2023-05-20T20:50:55.045Z,15.77
2023-05-20T20:53:23.371Z,15.17
2023-05-20T20:55:52.138Z,14.33
2023-05-20T20:58:20.353Z,16.10
2023-05-20T21:00:49.840Z,16.27
2023-05-20T21:03:18.444Z,16.87
2023-05-20T21:05:48.519Z,13.90
2023-05-20T21:08:16.642Z,18.07
2023-05-20T21:10:44.817Z,13.50
2023-05-20T21:13:12.924Z,13.80
2023-05-20T21:15:42.963Z,13.27
2023-05-20T21:18:12.484Z,15.07
2023-05-20T21:20:40.610Z,18.67
2023-05-20T21:23:08.737Z,16.13
2023-05-20T21:25:37.042Z,16.23
2023-05-20T21:28:05.760Z,16.10
2023-05-20T21:30:33.924Z,13.80
2023-05-20T21:33:02.139Z,17.67
2023-05-20T21:35:31.716Z,17.30
2023-05-20T21:37:59.944Z,15.63
2023-05-20T21:40:28.078Z,13.80
2023-05-20T21:42:56.234Z,16.00
2023-05-20T21:45:24.384Z,15.40
2023-05-20T21:47:52.537Z,17.40
2023-05-20T21:50:20.721Z,16.70
2023-05-20T21:52:50.497Z,16.13
2023-05-20T21:55:23.275Z,15.40
2023-05-20T21:57:51.482Z,15.37
2023-05-20T22:00:20.648Z,16.40
2023-05-20T22:02:50.775Z,14.70
2023-05-20T22:05:19.726Z,26.10
2023-05-20T22:07:47.994Z,15.87
2023-05-20T22:10:18.283Z,15.27
2023-05-20T22:12:47.550Z,13.00
2023-05-20T22:15:15.998Z,15.83
2023-05-20T22:17:44.722Z,16.73
2023-05-20T22:20:14.019Z,14.63
2023-05-20T22:22:42.193Z,19.07
2023-05-20T22:25:11.089Z,15.67
2023-05-20T22:27:42.899Z,16.30
2023-05-20T22:30:12.424Z,14.30
2023-05-20T22:32:41.266Z,15.50
2023-05-20T22:35:13.163Z,14.30
2023-05-20T22:37:41.789Z,14.00
2023-05-20T22:40:11.698Z,14.33
2023-05-20T22:42:41.228Z,15.40
2023-05-20T22:45:10.774Z,17.13
2023-05-20T22:47:38.966Z,16.90
2023-05-20T22:50:08.797Z,15.70
2023-05-20T22:52:37.727Z,15.10
2023-05-20T22:55:06.527Z,17.87
2023-05-20T22:57:34.754Z,11.00
2023-05-20T23:00:07.681Z,13.40
2023-05-20T23:02:35.839Z,15.57
2023-05-20T23:05:06.237Z,13.60
2023-05-20T23:07:34.508Z,12.50
2023-05-20T23:10:02.701Z,18.53
2023-05-20T23:12:30.870Z,16.70
2023-05-20T23:14:59.069Z,16.50
2023-05-20T23:17:28.590Z,12.93
2023-05-20T23:19:56.762Z,11.67
2023-05-20T23:22:24.881Z,13.63
2023-05-20T23:24:53.042Z,13.77
2023-05-20T23:27:21.194Z,12.57
2023-05-20T23:29:49.354Z,16.87
2023-05-20T23:32:17.498Z,13.23
2023-05-20T23:34:47.434Z,15.50
2023-05-20T23:37:15.742Z,16.10
2023-05-20T23:39:43.896Z,15.50
2023-05-20T23:42:12.035Z,16.87
2023-05-20T23:44:40.205Z,11.33
2023-05-20T23:47:13.441Z,20.83
2023-05-20T23:49:41.787Z,10.97
2023-05-20T23:52:11.260Z,11.90
2023-05-20T23:54:39.408Z,12.93
2023-05-20T23:57:10.250Z,16.67
2023-05-20T23:59:38.592Z,14.70
